Time;durP1;ratioP1;P1;durP2;ratioP2;P2;SDS_P1;SDS_P2;PMS_P1;PMS_P2;Temp;Humidity;BMP_temperature;BMP_pressure;BME280_temperature;BME280_humidity;BME280_pressure;Samples;Min_cycle;Max_cycle;Signal;HPM_P1;HPM_P2
2023/06/04 00:00:34;;;;;;;7.28;2.60;;;18.30;76.40;;;;;;4214906;28;20043;-54
2023/06/04 00:02:37;;;;;;;6.70;2.50;;;18.30;76.50;;;;;;4215879;28;20048;-56
2023/06/04 00:04:39;;;;;;;7.13;2.83;;;18.30;76.60;;;;;;4216418;28;20082;-55
2023/06/04 00:06:42;;;;;;;8.75;2.80;;;18.20;76.50;;;;;;4216163;28;20055;-55
2023/06/04 00:08:44;;;;;;;5.15;2.50;;;18.20;76.60;;;;;;4216031;28;20043;-54
2023/06/04 00:10:46;;;;;;;4.75;2.50;;;18.10;76.70;;;;;;4214689;28;20044;-54
2023/06/04 00:12:53;;;;;;;7.50;2.65;;;18.10;76.80;;;;;;4216261;28;20387;-54
2023/06/04 00:14:55;;;;;;;5.53;2.80;;;18.00;76.80;;;;;;4215887;28;20443;-56
2023/06/04 00:16:57;;;;;;;7.50;2.88;;;18.00;76.90;;;;;;4216145;28;20054;-54
2023/06/04 00:19:01;;;;;;;9.60;2.90;;;18.00;77.00;;;;;;4216114;28;20047;-55
2023/06/04 00:21:03;;;;;;;8.52;2.50;;;17.90;77.00;;;;;;4213627;28;20047;-55
2023/06/04 00:23:05;;;;;;;8.07;2.55;;;17.90;77.10;;;;;;4216123;28;20040;-54
2023/06/04 00:25:08;;;;;;;7.15;2.40;;;17.90;77.00;;;;;;4215507;28;20048;-56
2023/06/04 00:27:10;;;;;;;5.22;2.55;;;17.90;77.20;;;;;;4215812;28;20461;-53
2023/06/04 00:29:12;;;;;;;6.38;2.58;;;17.90;77.30;;;;;;4215766;28;20048;-57
2023/06/04 00:31:15;;;;;;;7.32;2.20;;;17.90;77.40;;;;;;4214641;28;20048;-52
2023/06/04 00:33:17;;;;;;;6.15;2.40;;;17.80;77.40;;;;;;4215567;28;20054;-54
2023/06/04 00:35:21;;;;;;;11.13;2.72;;;17.80;77.50;;;;;;4209302;28;20097;-55
2023/06/04 00:37:23;;;;;;;3.22;2.40;;;17.80;77.50;;;;;;4197847;28;20146;-54
2023/06/04 00:39:25;;;;;;;11.52;2.60;;;17.70;78.30;;;;;;4215181;28;20111;-55
2023/06/04 00:41:28;;;;;;;8.35;2.30;;;17.60;78.50;;;;;;4214783;28;20068;-55
2023/06/04 00:43:31;;;;;;;6.20;2.72;;;17.60;78.10;;;;;;4215642;28;20467;-54
2023/06/04 00:45:34;;;;;;;6.20;2.60;;;17.50;78.20;;;;;;4215877;28;20081;-54
2023/06/04 00:47:37;;;;;;;7.90;2.70;;;17.50;78.20;;;;;;4215869;28;20045;-57
2023/06/04 00:49:39;;;;;;;5.55;2.70;;;17.50;78.20;;;;;;4215496;28;20123;-53
2023/06/04 00:51:42;;;;;;;8.77;2.58;;;17.50;78.40;;;;;;4214804;28;20442;-54
2023/06/04 00:53:45;;;;;;;9.57;2.45;;;17.50;78.40;;;;;;4215380;28;20391;-54
2023/06/04 00:55:47;;;;;;;5.05;2.53;;;17.40;78.40;;;;;;4215631;28;20063;-55
2023/06/04 00:57:49;;;;;;;7.10;2.85;;;17.40;78.40;;;;;;4215900;28;20051;-55
2023/06/04 00:59:51;;;;;;;11.65;2.58;;;17.40;78.50;;;;;;4215495;28;20198;-55
2023/06/04 01:01:58;;;;;;;6.88;2.55;;;17.30;78.70;;;;;;4215568;28;20047;-57
2023/06/04 01:04:02;;;;;;;8.18;2.47;;;17.30;78.80;;;;;;4198688;28;20103;-54
2023/06/04 01:06:12;;;;;;;14.40;2.70;;;17.30;78.60;;;;;;4217361;28;20135;-55
2023/06/04 01:08:16;;;;;;;7.60;2.63;;;17.20;78.80;;;;;;4216473;28;20540;-57
2023/06/04 01:10:18;;;;;;;4.43;2.70;;;17.30;78.80;;;;;;4214204;28;20040;-57
2023/06/04 01:12:25;;;;;;;10.40;2.38;;;17.20;78.80;;;;;;4215358;28;20578;-56
2023/06/04 01:14:36;;;;;;;4.55;2.30;;;17.20;78.80;;;;;;4216785;28;20044;-58
2023/06/04 01:16:43;;;;;;;6.63;2.13;;;17.20;78.80;;;;;;4218328;28;20068;-61
2023/06/04 01:18:47;;;;;;;9.02;2.85;;;17.20;78.80;;;;;;4218298;28;20076;-59
2023/06/04 01:20:51;;;;;;;4.85;2.30;;;17.10;78.90;;;;;;4216505;28;20048;-58
2023/06/04 01:23:33;;;;;;;7.30;2.20;;;17.00;79.30;;;;;;4217147;28;20072;-62
2023/06/04 01:25:49;;;;;;;6.05;2.70;;;17.10;79.10;;;;;;4217841;28;20051;-57
2023/06/04 01:27:55;;;;;;;6.35;2.30;;;17.00;79.10;;;;;;4200388;28;20049;-61
2023/06/04 01:29:58;;;;;;;6.28;2.10;;;17.00;79.00;;;;;;4200532;28;20049;-63
2023/06/04 01:32:00;;;;;;;6.47;2.50;;;17.00;79.00;;;;;;4199463;28;20492;-56
2023/06/04 01:34:02;;;;;;;6.65;2.10;;;17.00;79.70;;;;;;4206936;28;20504;-60
2023/06/04 01:36:10;;;;;;;3.60;2.03;;;16.90;79.20;;;;;;4210727;28;20044;-57
2023/06/04 01:38:12;;;;;;;5.28;2.38;;;16.90;79.20;;;;;;4216011;28;20430;-56
2023/06/04 01:40:15;;;;;;;10.00;2.53;;;16.90;79.20;;;;;;4215899;28;20044;-55
2023/06/04 01:42:17;;;;;;;5.07;2.20;;;16.90;79.20;;;;;;4216166;28;20048;-56
2023/06/04 01:44:20;;;;;;;11.07;2.50;;;16.90;79.30;;;;;;4215104;28;20059;-60
2023/06/04 01:46:24;;;;;;;6.47;2.28;;;16.80;79.30;;;;;;4215359;28;20048;-58
2023/06/04 01:48:26;;;;;;;5.68;2.50;;;16.80;79.40;;;;;;4216864;28;20436;-58
2023/06/04 01:50:28;;;;;;;5.97;2.38;;;16.80;79.30;;;;;;4216721;28;20056;-60
2023/06/04 01:52:30;;;;;;;9.55;2.55;;;16.70;79.30;;;;;;4215905;28;20127;-55
2023/06/04 01:54:33;;;;;;;9.30;2.20;;;16.70;79.20;;;;;;4216010;28;20424;-59
2023/06/04 01:56:37;;;;;;;8.30;2.38;;;16.70;79.40;;;;;;4216858;28;20048;-56
2023/06/04 01:58:40;;;;;;;7.43;2.47;;;16.60;79.30;;;;;;4216679;28;20051;-57
2023/06/04 02:00:42;;;;;;;11.95;2.58;;;16.70;79.40;;;;;;4214469;28;20044;-57
2023/06/04 02:02:45;;;;;;;4.90;2.55;;;16.60;79.30;;;;;;4216664;28;20040;-57
2023/06/04 02:04:51;;;;;;;9.30;2.35;;;16.60;79.20;;;;;;4216995;28;20127;-57
2023/06/04 02:06:53;;;;;;;5.13;2.55;;;16.60;79.30;;;;;;4216578;28;20054;-59
2023/06/04 02:09:00;;;;;;;3.95;2.00;;;16.60;79.40;;;;;;4216308;28;20043;-64
2023/06/04 02:11:02;;;;;;;7.13;1.98;;;16.50;79.40;;;;;;4215685;28;20098;-58
2023/06/04 02:13:07;;;;;;;5.93;2.28;;;16.50;79.50;;;;;;4199540;28;20053;-67
2023/06/04 02:15:10;;;;;;;7.65;2.60;;;16.50;79.40;;;;;;4216466;28;20500;-58
2023/06/04 02:17:13;;;;;;;8.68;2.50;;;16.60;79.40;;;;;;4217226;28;20065;-65
2023/06/04 02:19:15;;;;;;;6.13;2.70;;;16.50;79.40;;;;;;4217475;28;20465;-61
2023/06/04 02:21:17;;;;;;;5.82;2.63;;;16.50;79.50;;;;;;4215263;28;20048;-60
2023/06/04 02:23:19;;;;;;;6.40;2.17;;;16.50;80.10;;;;;;4215366;28;20120;-53
2023/06/04 02:25:22;;;;;;;8.25;2.35;;;16.50;79.60;;;;;;4215084;28;20203;-56
2023/06/04 02:27:24;;;;;;;6.25;2.75;;;16.40;79.60;;;;;;4214693;28;20048;-57
2023/06/04 02:29:28;;;;;;;8.30;2.90;;;16.40;79.50;;;;;;4215445;28;20048;-54
2023/06/04 02:31:30;;;;;;;9.93;2.33;;;16.40;79.50;;;;;;4213179;28;20044;-54
2023/06/04 02:33:33;;;;;;;9.07;2.40;;;16.40;79.30;;;;;;4213835;28;20044;-54
2023/06/04 02:35:35;;;;;;;6.55;2.33;;;16.40;79.40;;;;;;4206896;28;20040;-54
2023/06/04 02:37:38;;;;;;;7.40;2.00;;;16.40;79.40;;;;;;4213976;28;20044;-55
2023/06/04 02:39:40;;;;;;;8.95;2.30;;;16.40;79.50;;;;;;4215013;28;20481;-55
2023/06/04 02:41:42;;;;;;;8.27;2.28;;;16.40;79.60;;;;;;4213485;28;20044;-56
2023/06/04 02:43:44;;;;;;;6.63;2.33;;;16.40;79.50;;;;;;4213485;28;20056;-55
2023/06/04 02:45:48;;;;;;;6.30;2.50;;;16.40;80.00;;;;;;4213761;28;20513;-55
2023/06/04 02:47:50;;;;;;;13.73;2.35;;;16.30;79.50;;;;;;4213818;28;20055;-54
2023/06/04 02:49:52;;;;;;;5.90;2.50;;;16.30;79.60;;;;;;4213457;28;20055;-55
2023/06/04 02:51:54;;;;;;;8.73;2.13;;;16.30;79.70;;;;;;4212541;28;20041;-54
2023/06/04 02:53:57;;;;;;;4.57;2.03;;;16.30;79.50;;;;;;4214090;28;20044;-55
2023/06/04 02:55:59;;;;;;;5.85;2.20;;;16.30;79.60;;;;;;4213643;28;20067;-55
2023/06/04 02:58:02;;;;;;;10.07;2.45;;;16.30;79.70;;;;;;4213813;28;20044;-56
2023/06/04 03:00:12;;;;;;;6.38;2.63;;;16.30;79.70;;;;;;4213602;28;20070;-55
2023/06/04 03:02:16;;;;;;;5.05;2.35;;;16.30;79.60;;;;;;4212444;28;20513;-55
2023/06/04 03:04:18;;;;;;;9.30;2.72;;;16.20;79.50;;;;;;4213191;28;20066;-55
2023/06/04 03:06:21;;;;;;;6.75;2.25;;;16.20;79.50;;;;;;4213123;28;20064;-55
2023/06/04 03:08:23;;;;;;;7.45;2.03;;;16.20;79.50;;;;;;4195414;28;20061;-55
2023/06/04 03:10:26;;;;;;;9.80;2.67;;;16.20;79.60;;;;;;4212897;28;20048;-55
2023/06/04 03:12:28;;;;;;;7.03;2.42;;;16.20;79.50;;;;;;4213390;28;20096;-54
2023/06/04 03:14:33;;;;;;;6.03;2.20;;;16.10;79.60;;;;;;4213276;28;20431;-56
2023/06/04 03:16:39;;;;;;;4.18;2.22;;;16.10;79.70;;;;;;4213539;28;20518;-57
2023/06/04 03:18:44;;;;;;;5.85;2.35;;;16.00;79.70;;;;;;4212802;28;20119;-55
2023/06/04 03:20:46;;;;;;;3.47;2.10;;;16.10;79.80;;;;;;4212247;28;20067;-58
2023/06/04 03:22:48;;;;;;;8.00;2.63;;;16.00;79.80;;;;;;4195179;28;20048;-56
2023/06/04 03:24:52;;;;;;;5.05;2.08;;;16.00;79.90;;;;;;4213635;28;20044;-56
2023/06/04 03:26:54;;;;;;;5.72;2.50;;;16.00;79.90;;;;;;4213243;28;20040;-57
2023/06/04 03:28:56;;;;;;;8.68;2.38;;;16.00;80.00;;;;;;4213288;28;20406;-57
2023/06/04 03:30:59;;;;;;;3.90;2.50;;;16.00;80.00;;;;;;4212418;28;20140;-57
2023/06/04 03:33:01;;;;;;;6.47;1.92;;;16.00;79.90;;;;;;4213127;28;20131;-54
2023/06/04 03:35:07;;;;;;;5.75;1.75;;;16.00;80.00;;;;;;4206046;28;20044;-55
2023/06/04 03:37:09;;;;;;;6.00;2.20;;;15.90;80.10;;;;;;4213410;28;20052;-54
2023/06/04 03:39:11;;;;;;;7.15;2.30;;;15.90;80.10;;;;;;4213041;28;20460;-54
2023/06/04 03:41:13;;;;;;;8.90;2.40;;;15.90;80.10;;;;;;4212172;28;20126;-54
2023/06/04 03:43:16;;;;;;;4.95;2.20;;;15.90;80.30;;;;;;4213007;28;20066;-54
2023/06/04 03:45:18;;;;;;;3.78;1.92;;;15.90;80.40;;;;;;4213444;28;20047;-55
2023/06/04 03:47:20;;;;;;;5.32;2.03;;;15.90;80.20;;;;;;4213106;28;20052;-55
2023/06/04 03:49:22;;;;;;;7.07;2.53;;;15.90;80.10;;;;;;4212824;28;20055;-54
2023/06/04 03:51:25;;;;;;;4.82;1.77;;;15.90;80.00;;;;;;4211929;28;20044;-55
2023/06/04 03:53:27;;;;;;;5.43;2.45;;;15.80;80.20;;;;;;4212994;28;20452;-54
2023/06/04 03:55:31;;;;;;;4.45;2.03;;;15.80;80.10;;;;;;4213173;28;20047;-54
2023/06/04 03:57:34;;;;;;;3.40;2.08;;;15.80;80.10;;;;;;4216474;28;20040;-55
2023/06/04 03:59:36;;;;;;;4.80;1.90;;;15.80;80.10;;;;;;4216240;28;20129;-54
2023/06/04 04:01:39;;;;;;;7.88;2.58;;;15.90;80.70;;;;;;4215127;28;20139;-54
2023/06/04 04:03:42;;;;;;;6.30;2.22;;;15.90;80.20;;;;;;4216111;28;20452;-53
2023/06/04 04:05:45;;;;;;;2.93;2.00;;;15.90;80.30;;;;;;4198352;28;20052;-53
2023/06/04 04:07:48;;;;;;;4.80;2.05;;;15.90;80.10;;;;;;4215990;28;20094;-52
2023/06/04 04:09:52;;;;;;;6.03;2.05;;;15.90;80.00;;;;;;4216186;28;20050;-54
2023/06/04 04:11:54;;;;;;;3.53;1.80;;;15.80;80.40;;;;;;4214804;28;20198;-55
2023/06/04 04:13:57;;;;;;;3.17;1.80;;;15.70;80.40;;;;;;4197849;28;20044;-55
2023/06/04 04:15:59;;;;;;;7.43;2.13;;;15.60;80.50;;;;;;4215860;28;20043;-54
2023/06/04 04:18:03;;;;;;;4.47;2.10;;;15.70;80.50;;;;;;4197643;28;20438;-55
2023/06/04 04:20:06;;;;;;;11.63;2.47;;;15.70;80.50;;;;;;4215968;28;20052;-54
2023/06/04 04:22:10;;;;;;;5.18;1.88;;;15.80;80.20;;;;;;4214713;28;20079;-54
2023/06/04 04:24:25;;;;;;;7.65;2.30;;;15.80;80.40;;;;;;4215818;28;20130;-55
2023/06/04 04:26:28;;;;;;;11.93;2.20;;;15.80;80.00;;;;;;4215603;28;20048;-54
2023/06/04 04:28:32;;;;;;;7.30;2.22;;;15.80;79.90;;;;;;4215783;28;20093;-55
2023/06/04 04:30:35;;;;;;;7.07;2.05;;;15.80;80.00;;;;;;4215650;28;20068;-55
2023/06/04 04:32:38;;;;;;;3.95;2.17;;;15.90;80.00;;;;;;4215126;28;20059;-54
2023/06/04 04:34:51;;;;;;;5.57;2.15;;;15.90;80.10;;;;;;4210068;28;20128;-55
2023/06/04 04:36:54;;;;;;;5.50;1.95;;;15.90;79.80;;;;;;4198860;28;20048;-56
2023/06/04 04:38:58;;;;;;;3.33;1.67;;;15.90;80.10;;;;;;4212251;28;20142;-56
2023/06/04 04:41:01;;;;;;;5.72;2.38;;;15.80;80.10;;;;;;4214550;28;20044;-57
2023/06/04 04:43:03;;;;;;;5.25;1.83;;;15.80;80.00;;;;;;4215443;28;20516;-53
2023/06/04 04:45:07;;;;;;;4.72;2.13;;;15.90;80.10;;;;;;4215591;28;20048;-54
2023/06/04 04:47:09;;;;;;;6.80;2.10;;;15.90;80.00;;;;;;4215141;28;20186;-55
2023/06/04 04:49:11;;;;;;;6.38;2.63;;;15.90;79.90;;;;;;4215076;28;20044;-54
2023/06/04 04:51:13;;;;;;;11.65;3.35;;;15.90;80.20;;;;;;4214802;28;20051;-53
2023/06/04 04:53:15;;;;;;;5.03;2.53;;;15.90;79.80;;;;;;4215279;28;20040;-55
2023/06/04 04:55:17;;;;;;;6.28;2.40;;;16.00;79.60;;;;;;4215083;28;20047;-54
2023/06/04 04:57:21;;;;;;;12.02;2.08;;;15.90;79.40;;;;;;4215415;28;20109;-54
2023/06/04 04:59:23;;;;;;;3.80;2.15;;;16.00;79.40;;;;;;4215218;28;20072;-55
2023/06/04 05:01:25;;;;;;;9.27;2.60;;;16.00;79.70;;;;;;4214131;28;20413;-55
2023/06/04 05:03:27;;;;;;;6.78;2.92;;;16.00;79.80;;;;;;4215139;28;20051;-54
2023/06/04 05:05:30;;;;;;;7.90;2.25;;;16.00;80.00;;;;;;4215257;28;20040;-54
2023/06/04 05:07:32;;;;;;;6.90;2.25;;;16.10;79.70;;;;;;4214784;28;20047;-57
2023/06/04 05:09:34;;;;;;;5.80;2.13;;;16.10;80.30;;;;;;4214902;28;20051;-57
2023/06/04 05:11:36;;;;;;;8.13;2.17;;;16.00;79.50;;;;;;4214337;28;20051;-57
2023/06/04 05:13:42;;;;;;;6.68;1.90;;;16.00;79.20;;;;;;4197086;28;20040;-57
2023/06/04 05:15:45;;;;;;;4.05;1.85;;;16.00;79.20;;;;;;4214816;28;20048;-57
2023/06/04 05:17:47;;;;;;;3.42;1.83;;;16.10;79.10;;;;;;4214883;28;20098;-57
2023/06/04 05:19:49;;;;;;;4.75;1.70;;;16.10;78.90;;;;;;4214903;28;20075;-57
2023/06/04 05:21:51;;;;;;;4.80;1.80;;;16.10;79.00;;;;;;4213664;28;20144;-58
2023/06/04 05:23:53;;;;;;;4.97;1.90;;;16.00;78.80;;;;;;4214933;28;20048;-57
2023/06/04 05:25:56;;;;;;;6.60;1.80;;;16.00;78.70;;;;;;4214785;28;20147;-57
2023/06/04 05:27:58;;;;;;;7.10;2.25;;;15.90;78.90;;;;;;4214947;28;20401;-55
2023/06/04 05:30:03;;;;;;;7.22;2.05;;;15.90;79.00;;;;;;4214928;28;20067;-55
2023/06/04 05:32:05;;;;;;;;;;;15.80;79.10;;;;;;4214741;28;20075;-54
2023/06/04 05:34:08;;;;;;;6.35;2.17;;;15.80;79.40;;;;;;4197096;28;19927;-73
2023/06/04 05:36:10;;;;;;;3.65;2.10;;;15.70;79.50;;;;;;4212866;28;20048;-64
2023/06/04 05:38:16;;;;;;;4.10;1.85;;;15.70;79.50;;;;;;4218166;28;20081;-60
2023/06/04 05:40:19;;;;;;;4.05;1.77;;;15.70;79.50;;;;;;4217685;28;20048;-58
2023/06/04 05:42:22;;;;;;;3.92;1.92;;;15.80;79.40;;;;;;4214133;28;20116;-57
2023/06/04 05:44:24;;;;;;;5.70;2.13;;;15.80;79.30;;;;;;4214167;28;20048;-56
2023/06/04 05:46:27;;;;;;;3.65;2.00;;;15.80;79.20;;;;;;4214571;28;20047;-57
2023/06/04 05:48:32;;;;;;;4.90;2.47;;;15.90;79.20;;;;;;4214454;28;20113;-58
2023/06/04 05:50:34;;;;;;;4.10;1.80;;;15.90;79.10;;;;;;4214414;28;20044;-57
2023/06/04 05:52:36;;;;;;;10.02;2.10;;;15.90;79.10;;;;;;4213356;28;20036;-54
2023/06/04 05:54:38;;;;;;;4.22;1.65;;;15.90;79.10;;;;;;4214326;28;20043;-54
2023/06/04 05:56:41;;;;;;;6.57;1.98;;;15.90;79.30;;;;;;4214329;28;20482;-54
2023/06/04 05:58:43;;;;;;;6.55;1.80;;;16.00;79.20;;;;;;4213987;28;20043;-55
2023/06/04 06:00:45;;;;;;;4.13;1.98;;;16.00;78.90;;;;;;4215108;28;20074;-55
2023/06/04 06:02:49;;;;;;;7.78;1.90;;;16.00;78.80;;;;;;4213737;28;20052;-55
2023/06/04 06:04:52;;;;;;;2.60;1.40;;;16.00;78.90;;;;;;4214630;28;20379;-57
2023/06/04 06:06:55;;;;;;;11.55;2.15;;;16.10;78.90;;;;;;4214269;28;20044;-57
2023/06/04 06:08:58;;;;;;;6.03;1.90;;;16.10;78.50;;;;;;4214314;28;20043;-55
2023/06/04 06:11:00;;;;;;;5.60;1.85;;;16.00;78.70;;;;;;4214118;28;20405;-57
2023/06/04 06:13:02;;;;;;;4.18;1.83;;;16.10;78.90;;;;;;4213578;28;20047;-57
2023/06/04 06:15:06;;;;;;;4.95;1.83;;;16.10;78.70;;;;;;4213878;28;20130;-59
2023/06/04 06:17:08;;;;;;;3.08;1.70;;;16.00;79.30;;;;;;4213759;28;20043;-57
2023/06/04 06:19:12;;;;;;;3.10;1.52;;;16.20;78.70;;;;;;4213362;28;20046;-57
2023/06/04 06:21:14;;;;;;;5.38;1.85;;;16.20;78.20;;;;;;4213282;28;20101;-57
2023/06/04 06:23:18;;;;;;;4.25;1.75;;;16.20;79.00;;;;;;4213476;28;20052;-55
2023/06/04 06:25:20;;;;;;;8.10;2.13;;;16.20;78.40;;;;;;4213916;28;20060;-54
2023/06/04 06:27:22;;;;;;;5.15;1.50;;;16.20;78.50;;;;;;4195433;28;20601;-57
2023/06/04 06:29:25;;;;;;;5.28;1.75;;;16.20;78.30;;;;;;4214123;28;20044;-55
2023/06/04 06:31:27;;;;;;;4.63;1.90;;;16.30;78.60;;;;;;4212821;28;20051;-56
2023/06/04 06:33:31;;;;;;;3.75;1.60;;;16.40;78.40;;;;;;4213454;28;20047;-55
2023/06/04 06:35:35;;;;;;;5.65;1.70;;;16.50;78.40;;;;;;4183576;28;20099;-54
2023/06/04 06:37:41;;;;;;;5.85;2.17;;;16.60;78.30;;;;;;4197149;28;20072;-58
2023/06/04 06:39:43;;;;;;;3.58;1.55;;;16.60;78.20;;;;;;4213292;28;20184;-59
2023/06/04 06:41:46;;;;;;;8.52;1.50;;;16.50;78.10;;;;;;4212407;28;20072;-56
2023/06/04 06:43:48;;;;;;;7.25;1.67;;;16.60;78.80;;;;;;4213526;28;20532;-55
2023/06/04 06:45:50;;;;;;;6.07;2.30;;;16.70;77.90;;;;;;4213774;28;20493;-55
2023/06/04 06:47:52;;;;;;;6.25;1.67;;;16.70;78.10;;;;;;4213814;28;20409;-56
2023/06/04 06:49:55;;;;;;;3.78;1.42;;;16.80;78.10;;;;;;4213404;28;20044;-55
2023/06/04 06:51:58;;;;;;;3.92;1.55;;;16.90;78.10;;;;;;4212731;28;20044;-56
2023/06/04 06:54:00;;;;;;;3.22;1.90;;;16.90;77.80;;;;;;4213897;28;20040;-59
2023/06/04 06:56:02;;;;;;;4.35;1.67;;;16.90;77.70;;;;;;4195553;28;20449;-55
2023/06/04 06:58:05;;;;;;;4.97;1.55;;;17.00;77.80;;;;;;4213421;28;20044;-56
2023/06/04 07:00:08;;;;;;;10.98;1.77;;;17.20;77.50;;;;;;4213479;28;20071;-56
2023/06/04 07:02:10;;;;;;;5.18;1.63;;;17.40;77.60;;;;;;4194651;28;20482;-56
2023/06/04 07:04:13;;;;;;;3.90;1.90;;;17.50;77.00;;;;;;4196613;28;20044;-56
2023/06/04 07:06:15;;;;;;;9.45;1.95;;;17.70;77.00;;;;;;4215550;28;20040;-61
2023/06/04 07:08:19;;;;;;;4.85;1.45;;;18.00;76.20;;;;;;4214727;28;20040;-58
2023/06/04 07:10:21;;;;;;;4.57;1.73;;;18.00;75.90;;;;;;4213382;28;20044;-57
2023/06/04 07:12:24;;;;;;;7.40;1.83;;;18.20;75.50;;;;;;4212112;28;20117;-58
2023/06/04 07:14:25;;;;;;;7.50;2.10;;;18.10;75.50;;;;;;4213446;28;20058;-57
2023/06/04 07:16:28;;;;;;;6.03;1.80;;;18.10;74.70;;;;;;4213450;28;20040;-57
2023/06/04 07:18:30;;;;;;;5.53;2.10;;;18.20;74.90;;;;;;4213011;28;20123;-58
2023/06/04 07:20:32;;;;;;;3.97;1.67;;;18.20;75.00;;;;;;4213503;28;20051;-58
2023/06/04 07:22:36;;;;;;;5.95;1.83;;;18.20;74.80;;;;;;4212356;28;20051;-59
2023/06/04 07:24:40;;;;;;;5.75;1.73;;;18.30;74.60;;;;;;4194879;28;20522;-57
2023/06/04 07:26:42;;;;;;;8.27;1.70;;;18.40;75.10;;;;;;4203641;28;20048;-58
2023/06/04 07:28:45;;;;;;;7.82;1.40;;;18.50;74.80;;;;;;4213464;28;20102;-58
2023/06/04 07:30:47;;;;;;;5.30;1.60;;;18.60;74.60;;;;;;4215585;28;20109;-56
2023/06/04 07:32:49;;;;;;;7.32;1.80;;;18.70;73.80;;;;;;4215397;28;20040;-56
2023/06/04 07:34:51;;;;;;;3.25;1.70;;;18.80;74.20;;;;;;4209955;28;20478;-58
2023/06/04 07:36:53;;;;;;;2.47;1.73;;;18.90;74.00;;;;;;4199873;28;20418;-57
2023/06/04 07:38:55;;;;;;;3.08;1.60;;;19.20;74.00;;;;;;4210030;28;20047;-58
2023/06/04 07:40:59;;;;;;;4.00;1.60;;;19.20;73.90;;;;;;4216039;28;20102;-58
2023/06/04 07:43:01;;;;;;;3.67;1.90;;;19.30;73.30;;;;;;4215280;28;20457;-58
2023/06/04 07:45:04;;;;;;;3.10;1.70;;;19.30;73.30;;;;;;4216275;28;20131;-58
2023/06/04 07:47:07;;;;;;;3.38;1.70;;;19.30;73.00;;;;;;4216168;28;20093;-58
2023/06/04 07:49:09;;;;;;;4.00;1.95;;;19.30;72.80;;;;;;4216446;28;20044;-58
2023/06/04 07:51:13;;;;;;;6.07;1.40;;;19.30;72.80;;;;;;4216275;28;20044;-57
2023/06/04 07:53:15;;;;;;;4.78;1.70;;;19.30;73.10;;;;;;4197255;28;20045;-58
2023/06/04 07:55:17;;;;;;;2.47;1.70;;;19.30;72.80;;;;;;4216076;28;20118;-57
2023/06/04 07:57:20;;;;;;;2.67;1.52;;;19.30;72.90;;;;;;4216279;28;20558;-54
2023/06/04 07:59:23;;;;;;;9.10;1.85;;;19.50;73.40;;;;;;4216241;28;20044;-56
2023/06/04 08:01:25;;;;;;;4.80;1.60;;;19.70;72.70;;;;;;4215371;28;20558;-55
2023/06/04 08:03:27;;;;;;;5.13;1.98;;;19.80;72.90;;;;;;4215768;28;20558;-55
2023/06/04 08:05:30;;;;;;;5.55;1.52;;;19.90;72.90;;;;;;4215919;28;20118;-55
2023/06/04 08:07:32;;;;;;;7.22;1.85;;;20.00;72.90;;;;;;4215999;28;20048;-55
2023/06/04 08:09:34;;;;;;;4.93;1.83;;;20.20;72.90;;;;;;4215639;28;20564;-55
2023/06/04 08:11:37;;;;;;;2.50;1.60;;;20.30;71.80;;;;;;4215157;28;20068;-55
2023/06/04 08:13:41;;;;;;;5.22;1.88;;;20.10;72.40;;;;;;4215623;28;20055;-55
2023/06/04 08:15:43;;;;;;;7.03;1.60;;;20.10;72.40;;;;;;4215897;28;20078;-58
2023/06/04 08:17:45;;;;;;;4.05;1.55;;;20.30;72.50;;;;;;4215897;28;20404;-58
2023/06/04 08:19:47;;;;;;;3.85;1.83;;;20.40;72.60;;;;;;4215610;28;20048;-58
2023/06/04 08:21:50;;;;;;;3.95;2.08;;;20.50;72.40;;;;;;4214834;28;20072;-58
2023/06/04 08:23:52;;;;;;;4.80;1.65;;;20.50;72.20;;;;;;4215253;28;20054;-58
2023/06/04 08:25:55;;;;;;;4.43;2.03;;;20.60;72.30;;;;;;4215851;28;20128;-58
2023/06/04 08:27:57;;;;;;;5.38;2.17;;;20.80;72.20;;;;;;4215826;28;20072;-57
2023/06/04 08:30:00;;;;;;;8.07;1.75;;;20.90;72.00;;;;;;4215556;28;20116;-60
2023/06/04 08:32:03;;;;;;;6.40;1.98;;;20.90;71.70;;;;;;4214741;28;20405;-56
2023/06/04 08:34:06;;;;;;;4.97;2.13;;;20.80;72.20;;;;;;4214878;28;20054;-58
2023/06/04 08:36:08;;;;;;;2.85;1.90;;;21.00;72.40;;;;;;4209212;28;20044;-58
2023/06/04 08:38:10;;;;;;;3.20;1.70;;;21.00;72.10;;;;;;4215109;28;20044;-59
2023/06/04 08:40:14;;;;;;;4.03;2.00;;;21.10;72.30;;;;;;4215709;28;20461;-59
2023/06/04 08:42:26;;;;;;;6.38;1.60;;;21.20;71.10;;;;;;4213408;28;20402;-56
2023/06/04 08:44:29;;;;;;;6.15;2.03;;;21.30;71.00;;;;;;4215281;28;20063;-56
2023/06/04 08:46:36;;;;;;;3.10;1.70;;;21.30;70.60;;;;;;4216125;28;20130;-57
2023/06/04 08:48:39;;;;;;;3.20;1.85;;;21.30;69.80;;;;;;4215487;28;20047;-59
2023/06/04 08:50:44;;;;;;;4.47;2.00;;;21.20;70.40;;;;;;4215667;28;20123;-59
2023/06/04 08:52:48;;;;;;;4.70;1.98;;;21.30;70.60;;;;;;4214651;28;20157;-62
2023/06/04 08:54:52;;;;;;;6.55;2.00;;;21.50;69.80;;;;;;4216771;28;20478;-66
2023/06/04 08:56:56;;;;;;;10.30;1.80;;;21.60;69.40;;;;;;4217216;28;20409;-56
2023/06/04 08:59:02;;;;;;;4.43;2.08;;;21.70;69.10;;;;;;4216257;28;20167;-62
2023/06/04 09:01:04;;;;;;;4.65;1.70;;;21.60;69.00;;;;;;4214828;28;20481;-56
2023/06/04 09:03:10;;;;;;;6.95;1.92;;;21.70;69.00;;;;;;4214023;28;20051;-57
2023/06/04 09:05:20;;;;;;;5.97;2.10;;;21.90;68.00;;;;;;4215258;28;20074;-56
2023/06/04 09:07:22;;;;;;;6.63;1.83;;;22.00;68.10;;;;;;4214829;28;20048;-56
2023/06/04 09:09:25;;;;;;;7.05;1.60;;;22.20;67.90;;;;;;4214754;28;20066;-56
2023/06/04 09:11:35;;;;;;;4.38;1.70;;;22.10;66.40;;;;;;4215113;28;20131;-55
2023/06/04 09:13:39;;;;;;;4.78;1.55;;;22.00;66.80;;;;;;4215042;28;20048;-55
2023/06/04 09:15:41;;;;;;;4.60;2.20;;;22.10;66.20;;;;;;4214774;28;20239;-54
2023/06/04 09:17:44;;;;;;;3.42;1.58;;;22.20;66.40;;;;;;4214726;28;20044;-54
2023/06/04 09:19:47;;;;;;;8.35;1.52;;;22.30;65.70;;;;;;4214802;28;20048;-54
2023/06/04 09:21:51;;;;;;;2.38;1.50;;;22.40;65.60;;;;;;4213586;28;20051;-53
2023/06/04 09:23:54;;;;;;;6.68;2.08;;;22.50;64.80;;;;;;4214415;28;20052;-54
2023/06/04 09:25:56;;;;;;;4.47;1.60;;;22.70;64.50;;;;;;4213517;28;20044;-54
2023/06/04 09:28:05;;;;;;;3.17;1.30;;;22.50;64.20;;;;;;4198863;28;20068;-55
2023/06/04 09:30:09;;;;;;;4.63;1.75;;;22.50;63.50;;;;;;4214764;28;20253;-55
2023/06/04 09:32:12;;;;;;;6.00;1.83;;;22.60;64.30;;;;;;4213626;28;20048;-55
2023/06/04 09:34:14;;;;;;;9.30;1.40;;;22.60;62.90;;;;;;4214381;28;20044;-53
2023/06/04 09:36:18;;;;;;;5.40;1.30;;;22.50;62.50;;;;;;4214312;28;20047;-54
2023/06/04 09:38:21;;;;;;;2.65;1.40;;;22.60;62.70;;;;;;4213810;28;20066;-57
2023/06/04 09:40:23;;;;;;;7.43;1.65;;;22.70;62.50;;;;;;4214586;28;20433;-57
2023/06/04 09:42:26;;;;;;;7.57;1.63;;;22.70;62.50;;;;;;4213525;28;20422;-57
2023/06/04 09:44:29;;;;;;;5.72;1.52;;;22.90;61.40;;;;;;4214134;28;20056;-54
2023/06/04 09:46:31;;;;;;;9.35;2.03;;;22.90;61.10;;;;;;4214660;28;20397;-56
2023/06/04 09:48:34;;;;;;;3.53;1.83;;;23.00;59.70;;;;;;4214656;28;20097;-61
2023/06/04 09:50:41;;;;;;;7.40;1.60;;;22.90;59.10;;;;;;4196057;28;20052;-56
2023/06/04 09:52:45;;;;;;;2.38;1.50;;;23.00;59.10;;;;;;4213204;28;20052;-54
2023/06/04 09:54:47;;;;;;;12.48;1.92;;;23.00;59.20;;;;;;4214692;28;20040;-55
2023/06/04 09:56:54;;;;;;;6.40;1.65;;;23.10;58.90;;;;;;4214116;28;20048;-56
2023/06/04 09:59:02;;;;;;;15.13;1.98;;;23.20;58.80;;;;;;4214502;28;20178;-57
2023/06/04 10:01:05;;;;;;;6.97;1.40;;;23.10;58.80;;;;;;4214587;28;20048;-55
2023/06/04 10:03:14;;;;;;;5.78;1.60;;;23.20;58.60;;;;;;4212797;28;20044;-57
2023/06/04 10:05:21;;;;;;;6.82;1.75;;;23.10;58.80;;;;;;4213731;28;20047;-55
2023/06/04 10:07:24;;;;;;;5.13;1.40;;;23.10;59.60;;;;;;4214255;28;20064;-56
2023/06/04 10:09:29;;;;;;;5.72;1.63;;;23.10;57.70;;;;;;4214258;28;20396;-55
2023/06/04 10:11:35;;;;;;;8.43;2.03;;;23.20;58.80;;;;;;4214195;28;20056;-56
2023/06/04 10:13:45;;;;;;;5.53;1.73;;;23.30;58.90;;;;;;4213057;28;20125;-55
2023/06/04 10:15:48;;;;;;;5.47;1.65;;;23.40;59.20;;;;;;4213873;28;20398;-54
2023/06/04 10:17:51;;;;;;;10.10;2.00;;;23.50;58.70;;;;;;4213748;28;20066;-53
2023/06/04 10:19:54;;;;;;;7.07;1.92;;;23.60;58.80;;;;;;4213904;28;20048;-55
2023/06/04 10:21:56;;;;;;;8.07;1.75;;;23.50;59.20;;;;;;4213199;28;20044;-56
2023/06/04 10:23:59;;;;;;;4.35;1.50;;;23.40;58.80;;;;;;4213921;28;20051;-57
2023/06/04 10:26:03;;;;;;;7.35;1.60;;;23.40;59.70;;;;;;4214803;28;20418;-57
2023/06/04 10:28:05;;;;;;;3.90;1.38;;;23.40;59.60;;;;;;4214924;28;20044;-59
2023/06/04 10:30:08;;;;;;;7.55;1.70;;;23.50;60.10;;;;;;4214204;28;20066;-54
2023/06/04 10:32:10;;;;;;;3.33;1.35;;;23.60;59.90;;;;;;4212569;28;20044;-54
2023/06/04 10:34:14;;;;;;;3.03;1.40;;;23.60;59.70;;;;;;4213270;28;20047;-54
2023/06/04 10:36:18;;;;;;;4.85;1.63;;;23.70;59.80;;;;;;4213406;28;20455;-54
2023/06/04 10:38:22;;;;;;;9.60;1.55;;;23.60;59.50;;;;;;4213774;28;20105;-54
2023/06/04 10:40:32;;;;;;;5.47;1.70;;;23.60;59.30;;;;;;4196908;28;20048;-55